Terminal Aerodrome Forecast
Issued by NWS Tulsa, OK

Home | Current Version | Previous Version | Text Only | Print | Product List | Glossary On
Versions: 1 2 3 4 5 6 7 8 9 10 11 12
460
FTUS44 KTSA 122332
TAFFSM
TAF
KFSM 122332Z 1300/1324 02009KT P6SM SKC
     FM130300 02009KT P6SM SCT250
     FM130600 03008KT P6SM BKN200
     FM131900 10006KT P6SM SCT250=

USA.gov is the U.S. government's official web portal to all federal, state and local government web resources and services.